createdAt,value
2022-11-07T00:00:33.230Z,95798.69
2022-11-07T00:03:02.237Z,95798.75
2022-11-07T00:05:31.022Z,95785.19
2022-11-07T00:08:00.023Z,95801.00
2022-11-07T00:10:29.012Z,95801.31
2022-11-07T00:12:57.758Z,95810.56
2022-11-07T00:15:26.469Z,95781.22
2022-11-07T00:17:55.208Z,95798.25
2022-11-07T00:20:24.023Z,95802.47
2022-11-07T00:22:52.817Z,95791.25
2022-11-07T00:25:21.630Z,95811.56
2022-11-07T00:27:50.337Z,95803.75
2022-11-07T00:30:19.743Z,95800.28
2022-11-07T00:32:48.529Z,95801.25
2022-11-07T00:35:17.253Z,95804.06
2022-11-07T00:37:46.078Z,95810.03
2022-11-07T00:40:14.874Z,95814.88
2022-11-07T00:42:43.653Z,95810.81
2022-11-07T00:45:12.553Z,95818.63
2022-11-07T00:47:41.354Z,95812.34
2022-11-07T00:50:10.462Z,95815.59
2022-11-07T00:52:39.165Z,95811.25
2022-11-07T00:55:08.366Z,95812.78
2022-11-07T00:57:37.082Z,95805.22
2022-11-07T01:00:07.406Z,95815.38
2022-11-07T01:02:36.627Z,95813.38
2022-11-07T01:05:11.528Z,95828.09
2022-11-07T01:07:41.046Z,95820.22
2022-11-07T01:10:09.960Z,95827.75
2022-11-07T01:12:38.742Z,95823.22
2022-11-07T01:15:07.887Z,95831.19
2022-11-07T01:17:36.706Z,95831.97
2022-11-07T01:20:06.217Z,95842.00
2022-11-07T01:22:35.008Z,95844.88
2022-11-07T01:25:03.978Z,95832.31
2022-11-07T01:27:32.905Z,95838.25
2022-11-07T01:30:01.653Z,95844.66
2022-11-07T01:32:32.363Z,95834.50
2022-11-07T01:35:01.196Z,95839.06
2022-11-07T01:37:30.032Z,95828.75
2022-11-07T01:39:58.833Z,95830.63
2022-11-07T01:42:27.865Z,95830.31
2022-11-07T01:44:59.723Z,95842.53
2022-11-07T01:47:34.055Z,95838.63
2022-11-07T01:50:04.644Z,95845.66
2022-11-07T01:52:38.588Z,95838.13
2022-11-07T01:55:18.626Z,95830.63
2022-11-07T01:57:58.133Z,95827.81
2022-11-07T02:00:29.168Z,95837.03
2022-11-07T02:03:08.528Z,95835.81
2022-11-07T02:05:55.802Z,95841.56
2022-11-07T02:08:25.525Z,95836.25
2022-11-07T02:10:55.135Z,95830.47
2022-11-07T02:13:29.694Z,95840.47
2022-11-07T02:16:04.084Z,95834.66
2022-11-07T02:18:35.826Z,95834.03
2022-11-07T02:21:17.213Z,95834.03
2022-11-07T02:24:09.122Z,95842.00
2022-11-07T02:26:40.385Z,95835.25
2022-11-07T02:29:10.837Z,95833.69
2022-11-07T02:31:39.705Z,95844.59
2022-11-07T02:34:08.452Z,95845.69
2022-11-07T02:36:37.305Z,95840.97
2022-11-07T02:39:06.123Z,95846.53
2022-11-07T02:41:36.176Z,95839.88
2022-11-07T02:44:11.987Z,95829.47
2022-11-07T02:46:41.240Z,95840.97
2022-11-07T02:49:10.056Z,95846.91
2022-11-07T02:51:38.829Z,95841.69
2022-11-07T02:54:07.647Z,95838.59
2022-11-07T02:56:36.356Z,95855.53
2022-11-07T02:59:05.202Z,95852.44
2022-11-07T03:01:35.082Z,95854.19
2022-11-07T03:04:04.206Z,95855.94
2022-11-07T03:06:33.135Z,95861.13
2022-11-07T03:09:01.887Z,95860.19
2022-11-07T03:11:30.597Z,95864.94
2022-11-07T03:13:59.302Z,95870.13
2022-11-07T03:16:28.439Z,95875.78
2022-11-07T03:18:57.241Z,95877.66
2022-11-07T03:21:26.071Z,95871.38
2022-11-07T03:23:54.848Z,95856.47
2022-11-07T03:26:23.581Z,95880.03
2022-11-07T03:28:52.292Z,95888.34
2022-11-07T03:31:21.072Z,95889.66
2022-11-07T03:33:49.792Z,95900.66
2022-11-07T03:36:18.605Z,95905.97
2022-11-07T03:38:47.323Z,95904.09
2022-11-07T03:41:17.938Z,95895.81
2022-11-07T03:43:47.541Z,95893.34
2022-11-07T03:46:17.459Z,95896.22
2022-11-07T03:48:46.251Z,95894.31
2022-11-07T03:51:14.977Z,95907.84
2022-11-07T03:53:43.813Z,95900.31
2022-11-07T03:56:13.348Z,95897.50
2022-11-07T03:58:42.205Z,95899.41
2022-11-07T04:01:12.371Z,95903.81
2022-11-07T04:03:41.333Z,95918.13
2022-11-07T04:06:10.408Z,95919.34
2022-11-07T04:08:39.402Z,95914.25
2022-11-07T04:11:08.135Z,95916.16
2022-11-07T04:13:55.404Z,95908.00
2022-11-07T04:16:42.529Z,95901.09
2022-11-07T04:19:11.330Z,95909.41
2022-11-07T04:21:40.122Z,95902.06
2022-11-07T04:24:08.923Z,95914.28
2022-11-07T04:26:56.104Z,95919.16
2022-11-07T04:29:24.821Z,95920.13
2022-11-07T04:31:53.585Z,95912.53
2022-11-07T04:34:22.347Z,95916.91
2022-11-07T04:36:51.403Z,95921.78
2022-11-07T04:39:20.102Z,95926.13
2022-11-07T04:41:48.980Z,95923.69
2022-11-07T04:44:17.787Z,95912.94
2022-11-07T04:46:46.536Z,95912.41
2022-11-07T04:49:18.053Z,95913.16
2022-11-07T04:51:46.870Z,95912.97
2022-11-07T04:54:16.675Z,95915.16
2022-11-07T04:56:45.460Z,95898.94
2022-11-07T04:59:14.218Z,95908.88
2022-11-07T05:01:43.990Z,95895.13
2022-11-07T05:04:12.865Z,95910.25
2022-11-07T05:06:43.007Z,95895.13
2022-11-07T05:09:19.248Z,95898.66
2022-11-07T05:11:48.823Z,95902.34
2022-11-07T05:14:17.597Z,95904.84
2022-11-07T05:16:46.366Z,95909.69
2022-11-07T05:19:19.711Z,95906.09
2022-11-07T05:21:48.747Z,95912.50
2022-11-07T05:24:17.517Z,95921.91
2022-11-07T05:26:46.236Z,95926.31
2022-11-07T05:29:14.971Z,95922.31
2022-11-07T05:31:43.837Z,95908.00
2022-11-07T05:34:14.704Z,95896.13
2022-11-07T05:36:43.606Z,95913.66
2022-11-07T05:39:12.377Z,95911.63
2022-11-07T05:41:41.142Z,95930.44
2022-11-07T05:44:11.458Z,95915.81
2022-11-07T05:46:40.205Z,95922.63
2022-11-07T05:49:09.251Z,95920.66
2022-11-07T05:51:38.099Z,95923.31
2022-11-07T05:54:06.834Z,95916.50
2022-11-07T05:56:37.902Z,95917.50
2022-11-07T05:59:06.726Z,95914.25
2022-11-07T06:01:36.346Z,95913.81
2022-11-07T06:04:06.240Z,95923.41
2022-11-07T06:06:35.443Z,95922.97
2022-11-07T06:09:04.372Z,95926.19
2022-11-07T06:11:33.727Z,95946.38
2022-11-07T06:14:02.599Z,95922.16
2022-11-07T06:16:31.458Z,95923.63
2022-11-07T06:19:00.426Z,95926.31
2022-11-07T06:21:29.210Z,95939.78
2022-11-07T06:23:59.940Z,95932.66
2022-11-07T06:26:28.761Z,95935.34
2022-11-07T06:28:57.631Z,95938.16
2022-11-07T06:31:26.500Z,95936.72
2022-11-07T06:33:55.279Z,95937.06
2022-11-07T06:36:24.055Z,95934.81
2022-11-07T06:38:54.258Z,95945.63
2022-11-07T06:41:25.066Z,95935.00
2022-11-07T06:43:54.017Z,95936.94
2022-11-07T06:46:23.889Z,95939.50
2022-11-07T06:48:52.693Z,95935.34
2022-11-07T06:51:21.888Z,95939.00
2022-11-07T06:53:51.115Z,95935.94
2022-11-07T06:56:19.906Z,95929.06
2022-11-07T06:58:48.654Z,95928.47
2022-11-07T07:01:18.586Z,95934.91
2022-11-07T07:03:47.618Z,95938.81
2022-11-07T07:06:17.815Z,95933.50
2022-11-07T07:08:47.735Z,95941.78
2022-11-07T07:11:17.199Z,95931.94
2022-11-07T07:13:45.905Z,95949.31
2022-11-07T07:16:14.687Z,95957.31
2022-11-07T07:18:43.491Z,95949.78
2022-11-07T07:21:14.721Z,95945.09
2022-11-07T07:23:43.591Z,95943.06
2022-11-07T07:26:17.419Z,95944.78
2022-11-07T07:28:46.197Z,95944.59
2022-11-07T07:31:14.928Z,95948.97
2022-11-07T07:33:44.534Z,95950.72
2022-11-07T07:36:20.277Z,95939.59
2022-11-07T07:38:50.714Z,95948.06
2022-11-07T07:41:20.070Z,95964.34
2022-11-07T07:43:48.916Z,95968.25
2022-11-07T07:46:23.089Z,95965.25
2022-11-07T07:48:51.916Z,95967.28
2022-11-07T07:51:20.656Z,95966.00
2022-11-07T07:53:49.616Z,95968.34
2022-11-07T07:56:18.493Z,95981.66
2022-11-07T07:58:47.720Z,95966.81
2022-11-07T08:01:17.458Z,95978.41
2022-11-07T08:04:00.638Z,95970.69
2022-11-07T08:06:31.123Z,95968.94
2022-11-07T08:08:59.824Z,95978.63
2022-11-07T08:11:29.387Z,95970.97
2022-11-07T08:14:01.246Z,95973.19
2022-11-07T08:16:30.805Z,95967.13
2022-11-07T08:18:59.718Z,95969.13
2022-11-07T08:21:28.674Z,95961.09
2022-11-07T08:23:57.480Z,95964.91
2022-11-07T08:26:26.719Z,95943.19
2022-11-07T08:28:55.880Z,95965.84
2022-11-07T08:31:24.776Z,95966.19
2022-11-07T08:33:53.600Z,95970.00
2022-11-07T08:36:22.544Z,95971.84
2022-11-07T08:38:51.458Z,95966.31
2022-11-07T08:41:22.427Z,95955.84
2022-11-07T08:43:51.533Z,95962.69
2022-11-07T08:46:20.446Z,95959.13
2022-11-07T08:48:49.551Z,95963.84
2022-11-07T08:51:18.565Z,95959.59
2022-11-07T08:53:47.402Z,95972.91
2022-11-07T08:56:16.521Z,95955.88
2022-11-07T08:58:45.480Z,95975.28
2022-11-07T09:01:15.304Z,95979.78
2022-11-07T09:03:50.327Z,95976.84
2022-11-07T09:06:23.715Z,95974.00
2022-11-07T09:08:52.509Z,95956.91
2022-11-07T09:11:22.486Z,95965.72
2022-11-07T09:13:51.230Z,95968.72
2022-11-07T09:16:20.246Z,95985.31
2022-11-07T09:18:50.524Z,95975.63
2022-11-07T09:21:22.644Z,95979.66
2022-11-07T09:23:52.675Z,95977.22
2022-11-07T09:26:21.530Z,95980.09
2022-11-07T09:28:53.192Z,95980.28
2022-11-07T09:31:24.945Z,95985.50
2022-11-07T09:33:53.756Z,95979.59
2022-11-07T09:36:24.675Z,95979.97
2022-11-07T09:38:56.703Z,95970.75
2022-11-07T09:41:31.368Z,95976.53
2022-11-07T09:44:31.661Z,95969.41
2022-11-07T09:47:24.124Z,95970.84
2022-11-07T09:50:00.337Z,95958.41
2022-11-07T09:52:39.116Z,95980.50
2022-11-07T09:55:31.933Z,95988.63
2022-11-07T09:58:10.912Z,95981.94
2022-11-07T10:00:41.936Z,95979.81
2022-11-07T10:03:11.637Z,95982.16
2022-11-07T10:06:03.283Z,95985.38
2022-11-07T10:08:40.072Z,95982.84
2022-11-07T10:11:36.562Z,95984.59
2022-11-07T10:14:07.986Z,96011.28
2022-11-07T10:17:13.939Z,96011.84
2022-11-07T10:20:08.008Z,96015.28
2022-11-07T10:22:48.373Z,96017.66
2022-11-07T10:25:29.986Z,96018.13
2022-11-07T10:28:14.072Z,96026.06
2022-11-07T10:30:50.102Z,96024.53
2022-11-07T10:33:26.707Z,96033.53
2022-11-07T10:36:00.907Z,96041.19
2022-11-07T10:38:31.986Z,96040.59
2022-11-07T10:41:01.286Z,96028.31
2022-11-07T10:43:34.487Z,96047.47
2022-11-07T10:46:05.999Z,96039.00
2022-11-07T10:48:35.866Z,96041.47
2022-11-07T10:51:04.853Z,96040.50
2022-11-07T10:53:45.331Z,96047.03
2022-11-07T10:56:14.733Z,96048.41
2022-11-07T10:58:47.226Z,96046.63
2022-11-07T11:01:29.511Z,96042.50
2022-11-07T11:03:58.750Z,96030.44
2022-11-07T11:06:34.848Z,96032.28
2022-11-07T11:09:16.493Z,96055.94
2022-11-07T11:11:51.323Z,96037.88
2022-11-07T11:14:29.151Z,96056.63
2022-11-07T11:16:58.337Z,96028.94
2022-11-07T11:19:34.702Z,96059.38
2022-11-07T11:22:08.589Z,96062.31
2022-11-07T11:24:38.527Z,96062.03
2022-11-07T11:27:21.753Z,96066.81
2022-11-07T11:30:08.846Z,96076.41
2022-11-07T11:32:46.347Z,96073.53
2022-11-07T11:35:43.175Z,96079.72
2022-11-07T11:38:18.320Z,96067.72
2022-11-07T11:41:09.341Z,96081.72
2022-11-07T11:43:49.761Z,96066.94
2022-11-07T11:46:34.128Z,96073.81
2022-11-07T11:49:44.581Z,96081.09
2022-11-07T11:52:20.162Z,96086.84
2022-11-07T11:54:52.143Z,96090.38
2022-11-07T11:57:27.347Z,96086.72
2022-11-07T12:00:23.941Z,96081.81
2022-11-07T12:03:05.336Z,96084.81
2022-11-07T12:06:08.425Z,96088.06
2022-11-07T12:09:07.072Z,96096.34
2022-11-07T12:12:09.581Z,96092.47
2022-11-07T12:15:02.484Z,96082.00
2022-11-07T12:17:39.647Z,96101.59
2022-11-07T12:20:14.120Z,96098.72
2022-11-07T12:23:12.283Z,96094.50
2022-11-07T12:25:53.582Z,96089.50
2022-11-07T12:28:25.316Z,96106.41
2022-11-07T12:30:54.321Z,96099.56
2022-11-07T12:34:01.453Z,96101.66
2022-11-07T12:36:56.549Z,96110.78
2022-11-07T12:39:44.473Z,96103.81
2022-11-07T12:42:32.491Z,96094.06
2022-11-07T12:45:10.312Z,96097.09
2022-11-07T12:47:55.879Z,96102.91
2022-11-07T12:50:32.818Z,96090.84
2022-11-07T12:53:24.983Z,96092.25
2022-11-07T12:56:03.658Z,96096.56
2022-11-07T12:58:38.367Z,96093.78
2022-11-07T13:01:09.122Z,96092.47
2022-11-07T13:04:05.466Z,96093.31
2022-11-07T13:06:53.560Z,96090.44
2022-11-07T13:09:47.807Z,96084.59
2022-11-07T13:12:43.977Z,96084.59
2022-11-07T13:15:13.913Z,96087.56
2022-11-07T13:17:45.213Z,96087.31
2022-11-07T13:20:23.704Z,96092.53
2022-11-07T13:22:58.138Z,96087.53
2022-11-07T13:25:32.734Z,96091.03
2022-11-07T13:28:03.601Z,96091.31
2022-11-07T13:30:36.512Z,96092.34
2022-11-07T13:33:07.216Z,96088.44
2022-11-07T13:35:37.234Z,96092.69
2022-11-07T13:38:21.379Z,96088.78
2022-11-07T13:40:59.000Z,96075.72
2022-11-07T13:43:38.596Z,96085.13
2022-11-07T13:46:17.926Z,96088.59
2022-11-07T13:48:58.633Z,96096.25
2022-11-07T13:51:35.535Z,96108.69
2022-11-07T13:54:14.174Z,96104.91
2022-11-07T13:57:25.075Z,96112.72
2022-11-07T13:59:56.865Z,96113.09
2022-11-07T14:02:29.216Z,96113.31
2022-11-07T14:05:17.523Z,96095.41
2022-11-07T14:07:54.853Z,96083.31
2022-11-07T14:10:43.305Z,96118.59
2022-11-07T14:13:20.510Z,96126.91
2022-11-07T14:15:54.991Z,96118.56
2022-11-07T14:18:27.231Z,96120.78
2022-11-07T14:20:58.877Z,96121.06
2022-11-07T14:23:35.128Z,96112.41
2022-11-07T14:26:17.539Z,96122.50
2022-11-07T14:28:46.905Z,96123.66
2022-11-07T14:31:20.510Z,96118.19
2022-11-07T14:33:52.176Z,96120.06
2022-11-07T14:36:22.864Z,96116.69
2022-11-07T14:38:55.971Z,96113.38
2022-11-07T14:41:25.327Z,96115.16
2022-11-07T14:43:54.756Z,96123.06
2022-11-07T14:46:25.901Z,96127.31
2022-11-07T14:48:55.825Z,96121.56
2022-11-07T14:51:28.587Z,96127.13
2022-11-07T14:54:36.904Z,96129.00
2022-11-07T14:57:07.663Z,96126.13
2022-11-07T14:59:36.868Z,96128.25
2022-11-07T15:02:33.652Z,96123.50
2022-11-07T15:05:10.729Z,96122.75
2022-11-07T15:07:48.670Z,96118.28
2022-11-07T15:10:37.338Z,96128.84
2022-11-07T15:13:25.075Z,96133.84
2022-11-07T15:16:05.936Z,96137.00
2022-11-07T15:18:44.448Z,96137.72
2022-11-07T15:21:37.875Z,96127.97
2022-11-07T15:24:35.749Z,96129.50
2022-11-07T15:27:18.567Z,96133.44
2022-11-07T15:29:56.435Z,96120.44
2022-11-07T15:32:27.553Z,96126.25
2022-11-07T15:35:17.338Z,96128.31
2022-11-07T15:37:58.199Z,96140.19
2022-11-07T15:40:28.702Z,96131.47
2022-11-07T15:42:57.535Z,96126.66
2022-11-07T15:45:26.433Z,96121.56
2022-11-07T15:47:55.180Z,96131.75
2022-11-07T15:50:25.443Z,96119.13
2022-11-07T15:52:55.098Z,96127.78
2022-11-07T15:55:24.384Z,96138.34
2022-11-07T15:57:54.973Z,96135.19
2022-11-07T16:00:27.381Z,96126.81
2022-11-07T16:02:56.337Z,96132.81
2022-11-07T16:05:26.175Z,96127.34
2022-11-07T16:07:54.925Z,96123.69
2022-11-07T16:10:26.526Z,96128.25
2022-11-07T16:13:02.352Z,96112.81
2022-11-07T16:15:34.477Z,96133.16
2022-11-07T16:18:03.347Z,96127.16
2022-11-07T16:20:34.073Z,96128.25
2022-11-07T16:23:03.064Z,96131.19
2022-11-07T16:25:32.432Z,96130.16
2022-11-07T16:28:02.748Z,96119.09
2022-11-07T16:30:32.341Z,96120.72
2022-11-07T16:33:01.304Z,96122.84
2022-11-07T16:35:30.494Z,96122.84
2022-11-07T16:38:00.373Z,96130.75
2022-11-07T16:40:29.109Z,96120.50
2022-11-07T16:42:57.855Z,96109.50
2022-11-07T16:45:26.686Z,96120.53
2022-11-07T16:47:55.924Z,96095.09
2022-11-07T16:50:24.769Z,96109.03
2022-11-07T16:52:53.562Z,96116.16
2022-11-07T16:55:22.354Z,96115.88
2022-11-07T16:57:51.076Z,96104.59
2022-11-07T17:00:23.571Z,96110.34
2022-11-07T17:02:52.612Z,96116.44
2022-11-07T17:05:21.663Z,96113.81
2022-11-07T17:08:20.295Z,96122.22
2022-11-07T17:10:49.508Z,96120.91
2022-11-07T17:13:19.037Z,96116.72
2022-11-07T17:15:47.753Z,96118.31
2022-11-07T17:18:25.378Z,96123.31
2022-11-07T17:20:55.279Z,96126.47
2022-11-07T17:23:29.990Z,96134.13
2022-11-07T17:26:00.698Z,96128.31
2022-11-07T17:28:29.458Z,96128.56
2022-11-07T17:30:58.287Z,96124.34
2022-11-07T17:33:27.038Z,96131.22
2022-11-07T17:35:56.236Z,96127.03
2022-11-07T17:38:26.062Z,96127.03
2022-11-07T17:40:54.822Z,96130.16
2022-11-07T17:43:23.988Z,96128.09
2022-11-07T17:45:52.775Z,96129.13
2022-11-07T17:48:21.421Z,96131.53
2022-11-07T17:50:50.262Z,96138.31
2022-11-07T17:53:18.968Z,96123.84
2022-11-07T17:55:47.628Z,96131.97
2022-11-07T17:58:16.570Z,96123.59
2022-11-07T18:00:46.233Z,96123.03
2022-11-07T18:03:15.210Z,96135.66
2022-11-07T18:05:43.942Z,96140.38
2022-11-07T18:08:31.189Z,96136.94
2022-11-07T18:11:02.466Z,96142.97
2022-11-07T18:13:31.326Z,96149.75
2022-11-07T18:16:00.362Z,96144.19
2022-11-07T18:18:29.304Z,96142.06
2022-11-07T18:21:00.634Z,96160.22
2022-11-07T18:23:29.350Z,96161.50
2022-11-07T18:26:10.394Z,96164.63
2022-11-07T18:28:41.282Z,96171.19
2022-11-07T18:31:15.763Z,96173.53
2022-11-07T18:33:45.196Z,96180.34
2022-11-07T18:36:17.871Z,96176.09
2022-11-07T18:38:46.569Z,96173.97
2022-11-07T18:41:21.459Z,96184.44
2022-11-07T18:43:50.915Z,96186.84
2022-11-07T18:46:19.815Z,96179.97
2022-11-07T18:48:49.175Z,96182.81
2022-11-07T18:51:21.495Z,96178.06
2022-11-07T18:53:51.674Z,96186.47
2022-11-07T18:56:21.466Z,96190.69
2022-11-07T18:58:50.341Z,96190.16
2022-11-07T19:01:28.845Z,96190.94
2022-11-07T19:04:01.825Z,96202.00
2022-11-07T19:06:31.379Z,96202.53
2022-11-07T19:09:00.841Z,96201.44
2022-11-07T19:11:32.210Z,96193.03
2022-11-07T19:14:02.727Z,96187.50
2022-11-07T19:16:32.091Z,96205.13
2022-11-07T19:19:01.013Z,96192.72
2022-11-07T19:21:29.729Z,96199.06
2022-11-07T19:23:58.521Z,96214.59
2022-11-07T19:26:27.232Z,96201.16
2022-11-07T19:28:56.475Z,96199.78
2022-11-07T19:31:25.238Z,96206.63
2022-11-07T19:33:54.045Z,96216.91
2022-11-07T19:36:24.056Z,96209.00
2022-11-07T19:38:52.846Z,96208.16
2022-11-07T19:41:21.691Z,96203.97
2022-11-07T19:43:50.737Z,96207.66
2022-11-07T19:46:23.965Z,96205.53
2022-11-07T19:48:52.864Z,96215.59
2022-11-07T19:51:23.242Z,96197.13
2022-11-07T19:53:57.667Z,96200.31
2022-11-07T19:56:29.081Z,96198.94
2022-11-07T19:58:59.244Z,96197.38
2022-11-07T20:01:32.269Z,96189.22
2022-11-07T20:04:02.442Z,96201.34
2022-11-07T20:06:36.206Z,96200.03
2022-11-07T20:09:07.282Z,96201.34
2022-11-07T20:11:36.998Z,96188.13
2022-11-07T20:14:06.491Z,96189.97
2022-11-07T20:16:37.410Z,96198.69
2022-11-07T20:19:06.535Z,96204.47
2022-11-07T20:21:35.394Z,96176.56
2022-11-07T20:24:06.164Z,96199.97
2022-11-07T20:26:34.963Z,96201.81
2022-11-07T20:29:04.608Z,96200.78
2022-11-07T20:31:37.249Z,96201.06
2022-11-07T20:34:12.510Z,96197.88
2022-11-07T20:36:41.286Z,96196.59
2022-11-07T20:39:12.565Z,96198.44
2022-11-07T20:41:44.446Z,96199.00
2022-11-07T20:44:15.391Z,96184.56
2022-11-07T20:46:46.197Z,96207.69
2022-11-07T20:49:17.459Z,96201.91
2022-11-07T20:51:46.730Z,96193.72
2022-11-07T20:54:16.846Z,96197.91
2022-11-07T20:56:46.180Z,96199.78
2022-11-07T20:59:14.926Z,96202.69
2022-11-07T21:01:44.636Z,96188.69
2022-11-07T21:04:16.029Z,96201.34
2022-11-07T21:06:45.297Z,96197.09
2022-11-07T21:09:14.347Z,96196.06
2022-11-07T21:11:43.338Z,96206.56
2022-11-07T21:14:12.154Z,96215.00
2022-11-07T21:16:41.114Z,96212.06
2022-11-07T21:19:14.809Z,96194.97
2022-11-07T21:21:43.880Z,96209.19
2022-11-07T21:24:12.702Z,96209.50
2022-11-07T21:26:41.482Z,96202.88
2022-11-07T21:29:10.373Z,96210.03
2022-11-07T21:31:41.051Z,96206.09
2022-11-07T21:34:12.050Z,96213.97
2022-11-07T21:36:40.829Z,96212.91
2022-11-07T21:39:10.349Z,96217.34
2022-11-07T21:41:39.179Z,96212.34
2022-11-07T21:44:07.902Z,96216.34
2022-11-07T21:46:36.674Z,96215.56
2022-11-07T21:49:06.679Z,96209.50
2022-11-07T21:51:36.586Z,96223.47
2022-11-07T21:54:06.891Z,96227.75
2022-11-07T21:56:38.303Z,96225.69
2022-11-07T21:59:10.570Z,96228.66
2022-11-07T22:01:41.883Z,96237.19
2022-11-07T22:04:13.349Z,96233.31
2022-11-07T22:06:44.761Z,96230.19
2022-11-07T22:09:19.467Z,96237.06
2022-11-07T22:11:49.182Z,96230.47
2022-11-07T22:14:20.982Z,96234.16
2022-11-07T22:16:51.271Z,96233.88
2022-11-07T22:19:20.091Z,96235.69
2022-11-07T22:21:49.782Z,96238.59
2022-11-07T22:24:18.581Z,96246.22
2022-11-07T22:26:47.351Z,96245.44
2022-11-07T22:29:16.075Z,96250.69
2022-11-07T22:31:44.973Z,96249.88
2022-11-07T22:34:13.784Z,96259.09
2022-11-07T22:36:42.738Z,96257.53
2022-11-07T22:39:11.467Z,96252.78
2022-11-07T22:41:40.230Z,96261.50
2022-11-07T22:44:09.064Z,96262.88
2022-11-07T22:46:37.861Z,96264.47
2022-11-07T22:49:07.568Z,96256.84
2022-11-07T22:51:36.355Z,96258.94
2022-11-07T22:54:11.650Z,96260.25
2022-11-07T22:56:41.146Z,96253.13
2022-11-07T22:59:12.064Z,96257.88
2022-11-07T23:01:43.553Z,96253.66
2022-11-07T23:04:15.726Z,96264.22
2022-11-07T23:06:45.100Z,96266.56
2022-11-07T23:09:15.815Z,96247.13
2022-11-07T23:11:47.156Z,96268.97
2022-11-07T23:14:19.006Z,96274.78
2022-11-07T23:16:53.312Z,96273.72
2022-11-07T23:19:24.530Z,96283.50
2022-11-07T23:21:55.834Z,96280.31
2022-11-07T23:24:24.745Z,96282.47
2022-11-07T23:26:53.500Z,96277.19
2022-11-07T23:29:24.633Z,96282.72
2022-11-07T23:31:53.957Z,96284.81
2022-11-07T23:34:23.290Z,96279.00
2022-11-07T23:36:52.661Z,96290.88
2022-11-07T23:39:23.417Z,96285.84
2022-11-07T23:41:52.555Z,96290.38
2022-11-07T23:44:21.419Z,96290.09
2022-11-07T23:47:08.768Z,96290.38
2022-11-07T23:49:56.111Z,96290.63
2022-11-07T23:52:24.843Z,96301.94
2022-11-07T23:55:12.059Z,96297.47
2022-11-07T23:57:59.342Z,96302.22
